createdAt,value
2018-09-04T00:00:51.047Z,16.21
2018-09-04T00:01:51.021Z,16.21
2018-09-04T00:02:51.656Z,16.17
2018-09-04T00:03:51.062Z,16.18
2018-09-04T00:04:50.966Z,16.18
2018-09-04T00:05:50.945Z,16.16
2018-09-04T00:06:50.932Z,16.18
2018-09-04T00:07:50.945Z,16.18
2018-09-04T00:08:50.995Z,16.18
2018-09-04T00:09:50.904Z,16.09
2018-09-04T00:10:50.922Z,16.08
2018-09-04T00:11:50.888Z,16.13
2018-09-04T00:12:50.978Z,16.12
2018-09-04T00:13:51.189Z,16.09
2018-09-04T00:14:50.939Z,16.18
2018-09-04T00:15:50.848Z,16.09
2018-09-04T00:16:50.815Z,16.12
2018-09-04T00:17:50.897Z,16.16
2018-09-04T00:18:50.807Z,16.03
2018-09-04T00:19:50.817Z,16.03
2018-09-04T00:20:50.851Z,16.06
2018-09-04T00:21:50.779Z,16.06
2018-09-04T00:22:50.792Z,16.05
2018-09-04T00:23:50.804Z,16.06
2018-09-04T00:24:50.773Z,16.05
2018-09-04T00:25:50.757Z,16.09
2018-09-04T00:26:50.711Z,16.05
2018-09-04T00:27:50.711Z,16.00
2018-09-04T00:28:50.725Z,16.06
2018-09-04T00:29:50.673Z,16.05
2018-09-04T00:30:50.747Z,16.08
2018-09-04T00:31:50.676Z,16.10
2018-09-04T00:32:50.661Z,16.10
2018-09-04T00:33:50.667Z,16.00
2018-09-04T00:34:50.651Z,15.98
2018-09-04T00:35:50.805Z,16.03
2018-09-04T00:36:50.593Z,16.05
2018-09-04T00:37:50.585Z,16.00
2018-09-04T00:38:50.569Z,16.02
2018-09-04T00:39:50.591Z,15.99
2018-09-04T00:40:50.555Z,15.99
2018-09-04T00:41:50.567Z,15.98
2018-09-04T00:42:50.531Z,15.87
2018-09-04T00:43:50.559Z,15.88
2018-09-04T00:44:50.507Z,15.91
2018-09-04T00:45:50.569Z,15.90
2018-09-04T00:46:50.523Z,15.91
2018-09-04T00:47:50.484Z,15.81
2018-09-04T00:48:50.466Z,15.84
2018-09-04T00:49:50.464Z,15.84
2018-09-04T00:50:50.435Z,15.85
2018-09-04T00:51:50.464Z,15.85
2018-09-04T00:52:50.411Z,15.83
2018-09-04T00:53:50.394Z,15.75
2018-09-04T00:54:50.392Z,15.81
2018-09-04T00:55:50.378Z,15.85
2018-09-04T00:56:50.384Z,15.78
2018-09-04T00:57:50.381Z,15.75
2018-09-04T00:58:50.344Z,15.84
2018-09-04T00:59:50.330Z,15.80
2018-09-04T01:00:50.321Z,15.84
2018-09-04T01:01:50.310Z,15.84
2018-09-04T01:02:50.329Z,15.81
2018-09-04T01:03:50.281Z,15.76
2018-09-04T01:04:50.277Z,15.69
2018-09-04T01:05:50.262Z,15.73
2018-09-04T01:06:50.259Z,15.78
2018-09-04T01:07:50.661Z,15.75
2018-09-04T01:08:50.268Z,15.69
2018-09-04T01:09:50.218Z,15.81
2018-09-04T01:10:50.207Z,15.75
2018-09-04T01:11:50.193Z,15.81
2018-09-04T01:12:50.186Z,15.76
2018-09-04T01:13:50.267Z,15.75
2018-09-04T01:14:50.167Z,15.80
2018-09-04T01:15:50.155Z,15.72
2018-09-04T01:16:50.141Z,15.65
2018-09-04T01:17:50.131Z,15.62
2018-09-04T01:18:50.172Z,15.65
2018-09-04T01:19:50.109Z,15.66
2018-09-04T01:20:50.107Z,15.65
2018-09-04T01:21:50.089Z,15.63
2018-09-04T01:22:50.085Z,15.60
2018-09-04T01:23:50.101Z,15.63
2018-09-04T01:24:50.063Z,15.63
2018-09-04T01:25:50.045Z,15.65
2018-09-04T01:26:50.035Z,15.62
2018-09-04T01:27:50.025Z,15.63
2018-09-04T01:28:50.046Z,15.72
2018-09-04T01:29:50.007Z,15.67
2018-09-04T01:30:50.021Z,15.62
2018-09-04T01:31:49.983Z,15.63
2018-09-04T01:32:49.982Z,15.62
2018-09-04T01:33:49.953Z,15.69
2018-09-04T01:34:49.951Z,15.75
2018-09-04T01:35:49.968Z,15.70
2018-09-04T01:36:49.931Z,15.73
2018-09-04T01:37:49.919Z,15.76
2018-09-04T01:38:49.915Z,15.69
2018-09-04T01:39:49.933Z,15.78
2018-09-04T01:40:49.884Z,15.75
2018-09-04T01:41:49.879Z,15.73
2018-09-04T01:42:49.861Z,15.76
2018-09-04T01:43:49.861Z,15.76
2018-09-04T01:44:49.873Z,15.80
2018-09-04T01:45:49.823Z,15.80
2018-09-04T01:46:49.817Z,15.75
2018-09-04T01:47:49.807Z,15.78
2018-09-04T01:48:49.789Z,15.81
2018-09-04T01:49:49.811Z,15.78
2018-09-04T01:50:49.807Z,15.73
2018-09-04T01:51:49.761Z,15.72
2018-09-04T01:52:49.748Z,15.75
2018-09-04T01:53:49.740Z,15.75
2018-09-04T01:54:49.714Z,15.81
2018-09-04T01:55:49.735Z,15.76
2018-09-04T01:56:49.696Z,15.73
2018-09-04T01:57:49.680Z,15.83
2018-09-04T01:58:49.686Z,15.75
2018-09-04T01:59:49.662Z,15.67
2018-09-04T02:00:49.680Z,15.80
2018-09-04T02:01:49.640Z,15.78
2018-09-04T02:02:49.630Z,15.84
2018-09-04T02:03:49.613Z,15.75
2018-09-04T02:04:49.606Z,15.76
2018-09-04T02:05:49.620Z,15.84
2018-09-04T02:06:49.618Z,15.72
2018-09-04T02:07:49.569Z,15.78
2018-09-04T02:08:49.561Z,15.75
2018-09-04T02:09:49.549Z,15.73
2018-09-04T02:10:49.545Z,15.69
2018-09-04T02:11:49.569Z,15.73
2018-09-04T02:12:49.524Z,15.73
2018-09-04T02:13:49.515Z,15.80
2018-09-04T02:14:49.502Z,15.67
2018-09-04T02:15:49.489Z,15.65
2018-09-04T02:16:49.523Z,15.65
2018-09-04T02:17:49.470Z,15.63
2018-09-04T02:18:49.457Z,15.67
2018-09-04T02:19:49.447Z,15.67
2018-09-04T02:20:49.429Z,15.67
2018-09-04T02:21:49.456Z,15.67
2018-09-04T02:22:49.409Z,15.60
2018-09-04T02:23:49.431Z,15.66
2018-09-04T02:24:49.385Z,15.66
2018-09-04T02:25:49.416Z,15.65
2018-09-04T02:26:49.356Z,15.57
2018-09-04T02:27:49.342Z,15.59
2018-09-04T02:28:49.361Z,15.55
2018-09-04T02:29:49.324Z,15.54
2018-09-04T02:30:49.340Z,15.52
2018-09-04T02:31:49.309Z,15.54
2018-09-04T02:32:49.292Z,15.50
2018-09-04T02:33:49.284Z,15.59
2018-09-04T02:34:49.266Z,15.51
2018-09-04T02:35:49.285Z,15.39
2018-09-04T02:36:49.274Z,15.47
2018-09-04T02:37:49.235Z,15.43
2018-09-04T02:38:49.225Z,15.48
2018-09-04T02:39:49.209Z,15.48
2018-09-04T02:40:49.365Z,15.51
2018-09-04T02:41:49.193Z,15.51
2018-09-04T02:42:49.185Z,15.52
2018-09-04T02:43:49.167Z,15.47
2018-09-04T02:44:49.157Z,15.52
2018-09-04T02:45:49.183Z,15.47
2018-09-04T02:46:49.131Z,15.44
2018-09-04T02:47:49.149Z,15.37
2018-09-04T02:48:49.111Z,15.36
2018-09-04T02:49:49.097Z,15.37
2018-09-04T02:50:49.089Z,15.37
2018-09-04T02:51:49.095Z,15.35
2018-09-04T02:52:49.086Z,15.35
2018-09-04T02:53:49.057Z,15.36
2018-09-04T02:54:49.045Z,15.36
2018-09-04T02:55:49.038Z,15.39
2018-09-04T02:56:49.018Z,15.35
2018-09-04T02:57:49.050Z,15.32
2018-09-04T02:58:49.009Z,15.33
2018-09-04T02:59:49.015Z,15.39
2018-09-04T03:00:48.993Z,15.37
2018-09-04T03:01:48.969Z,15.41
2018-09-04T03:02:48.998Z,15.44
2018-09-04T03:03:48.991Z,15.37
2018-09-04T03:04:48.967Z,15.35
2018-09-04T03:05:48.937Z,15.37
2018-09-04T03:06:48.935Z,15.37
2018-09-04T03:07:48.907Z,15.35
2018-09-04T03:08:48.901Z,15.33
2018-09-04T03:09:48.927Z,15.39
2018-09-04T03:10:48.881Z,15.41
2018-09-04T03:11:48.869Z,15.33
2018-09-04T03:12:48.855Z,15.36
2018-09-04T03:13:48.858Z,15.25
2018-09-04T03:14:48.871Z,15.41
2018-09-04T03:15:48.823Z,15.35
2018-09-04T03:16:48.815Z,15.30
2018-09-04T03:17:48.799Z,15.25
2018-09-04T03:18:48.789Z,15.23
2018-09-04T03:19:48.815Z,15.25
2018-09-04T03:20:48.763Z,15.14
2018-09-04T03:21:48.755Z,15.17
2018-09-04T03:22:48.740Z,15.12
2018-09-04T03:23:48.731Z,15.10
2018-09-04T03:24:48.751Z,15.07
2018-09-04T03:25:48.709Z,15.10
2018-09-04T03:26:48.699Z,15.02
2018-09-04T03:27:48.683Z,15.05
2018-09-04T03:28:48.673Z,15.08
2018-09-04T03:29:48.695Z,14.94
2018-09-04T03:30:48.679Z,15.05
2018-09-04T03:31:48.637Z,15.00
2018-09-04T03:32:48.616Z,14.99
2018-09-04T03:33:48.610Z,14.99
2018-09-04T03:34:48.624Z,14.93
2018-09-04T03:35:48.589Z,14.90
2018-09-04T03:36:48.595Z,14.90
2018-09-04T03:37:48.568Z,14.97
2018-09-04T03:38:48.556Z,14.93
2018-09-04T03:39:48.576Z,14.90
2018-09-04T03:40:48.568Z,14.87
2018-09-04T03:41:48.543Z,14.96
2018-09-04T03:42:48.504Z,14.92
2018-09-04T03:43:48.496Z,14.92
2018-09-04T03:44:48.486Z,14.86
2018-09-04T03:45:48.516Z,14.87
2018-09-04T03:46:48.467Z,14.78
2018-09-04T03:47:48.460Z,14.87
2018-09-04T03:48:48.442Z,14.79
2018-09-04T03:49:48.428Z,14.86
2018-09-04T03:50:48.458Z,14.82
2018-09-04T03:51:48.444Z,14.86
2018-09-04T03:52:48.402Z,14.93
2018-09-04T03:53:48.397Z,14.86
2018-09-04T03:54:48.374Z,14.87
2018-09-04T03:55:48.365Z,14.82
2018-09-04T03:56:48.382Z,14.78
2018-09-04T03:57:48.340Z,14.89
2018-09-04T03:58:48.333Z,14.86
2018-09-04T03:59:48.316Z,14.85
2018-09-04T04:00:48.310Z,14.79
2018-09-04T04:01:48.341Z,14.86
2018-09-04T04:02:48.297Z,14.89
2018-09-04T04:03:48.285Z,14.86
2018-09-04T04:04:48.273Z,14.87
2018-09-04T04:05:48.265Z,14.85
2018-09-04T04:06:48.279Z,14.85
2018-09-04T04:07:48.245Z,14.78
2018-09-04T04:08:48.231Z,14.79
2018-09-04T04:09:48.212Z,14.77
2018-09-04T04:10:48.217Z,14.73
2018-09-04T04:11:48.279Z,14.77
2018-09-04T04:12:48.183Z,14.78
2018-09-04T04:13:48.175Z,14.77
2018-09-04T04:14:48.161Z,14.92
2018-09-04T04:15:48.155Z,14.93
2018-09-04T04:16:48.169Z,14.89
2018-09-04T04:17:48.163Z,14.92
2018-09-04T04:18:48.117Z,14.92
2018-09-04T04:19:48.111Z,14.85
2018-09-04T04:20:48.099Z,14.79
2018-09-04T04:21:48.114Z,14.85
2018-09-04T04:22:48.079Z,14.85
2018-09-04T04:23:48.100Z,14.85
2018-09-04T04:24:48.049Z,14.79
2018-09-04T04:25:48.043Z,14.87
2018-09-04T04:26:48.057Z,14.89
2018-09-04T04:27:48.021Z,14.81
2018-09-04T04:28:48.042Z,14.70
2018-09-04T04:29:47.998Z,14.70
2018-09-04T04:30:47.985Z,14.73
2018-09-04T04:31:47.971Z,14.77
2018-09-04T04:32:47.965Z,14.74
2018-09-04T04:33:47.982Z,14.87
2018-09-04T04:34:47.932Z,14.82
2018-09-04T04:35:47.918Z,14.73
2018-09-04T04:36:47.904Z,14.86
2018-09-04T04:37:47.900Z,14.93
2018-09-04T04:38:47.915Z,14.93
2018-09-04T04:39:47.916Z,14.93
2018-09-04T04:40:47.866Z,14.94
2018-09-04T04:41:47.851Z,14.99
2018-09-04T04:42:47.842Z,14.99
2018-09-04T04:43:47.876Z,14.96
2018-09-04T04:44:47.818Z,14.93
2018-09-04T04:45:47.812Z,14.92
2018-09-04T04:46:47.795Z,14.99
2018-09-04T04:47:47.801Z,14.92
2018-09-04T04:48:47.810Z,14.97
2018-09-04T04:49:47.766Z,14.93
2018-09-04T04:50:47.750Z,14.97
2018-09-04T04:51:47.743Z,14.94
2018-09-04T04:52:47.732Z,14.97
2018-09-04T04:53:47.756Z,14.94
2018-09-04T04:54:47.722Z,14.94
2018-09-04T04:55:47.698Z,14.90
2018-09-04T04:56:47.684Z,14.89
2018-09-04T04:57:47.680Z,14.87
2018-09-04T04:58:47.788Z,14.94
2018-09-04T04:59:47.656Z,14.96
2018-09-04T05:00:47.644Z,14.86
2018-09-04T05:01:47.632Z,14.94
2018-09-04T05:02:47.618Z,15.07
2018-09-04T05:03:47.632Z,15.07
2018-09-04T05:04:47.688Z,15.12
2018-09-04T05:05:47.586Z,15.04
2018-09-04T05:06:47.593Z,15.12
2018-09-04T05:07:47.649Z,15.12
2018-09-04T05:08:47.569Z,15.25
2018-09-04T05:09:47.598Z,15.26
2018-09-04T05:10:47.551Z,15.30
2018-09-04T05:11:47.538Z,15.39
2018-09-04T05:12:47.525Z,15.45
2018-09-04T05:13:48.034Z,15.45
2018-09-04T05:14:47.557Z,15.50
2018-09-04T05:15:47.497Z,15.54
2018-09-04T05:16:47.472Z,15.44
2018-09-04T05:17:47.468Z,15.47
2018-09-04T05:18:47.900Z,15.57
2018-09-04T05:19:47.485Z,15.52
2018-09-04T05:20:47.433Z,15.51
2018-09-04T05:21:47.432Z,15.55
2018-09-04T05:22:48.262Z,15.65
2018-09-04T05:23:47.681Z,15.63
2018-09-04T05:24:47.402Z,15.63
2018-09-04T05:25:47.380Z,15.73
2018-09-04T05:26:47.373Z,15.84
2018-09-04T05:27:47.360Z,15.85
2018-09-04T05:28:47.376Z,15.91
2018-09-04T05:29:47.718Z,16.00
2018-09-04T05:30:47.327Z,16.08
2018-09-04T05:31:47.347Z,16.03
2018-09-04T05:32:47.360Z,16.09
2018-09-04T05:33:47.322Z,16.16
2018-09-04T05:34:47.272Z,16.21
2018-09-04T05:35:47.330Z,16.22
2018-09-04T05:36:47.328Z,16.37
2018-09-04T05:37:47.240Z,16.39
2018-09-04T05:38:47.241Z,16.46
2018-09-04T05:39:47.239Z,16.57
2018-09-04T05:40:47.195Z,16.65
2018-09-04T05:41:47.189Z,16.72
2018-09-04T05:42:47.168Z,16.76
2018-09-04T05:43:47.190Z,16.72
2018-09-04T05:44:47.182Z,16.76
2018-09-04T05:45:47.131Z,16.73
2018-09-04T05:46:47.127Z,16.74
2018-09-04T05:47:47.115Z,16.80
2018-09-04T05:48:47.102Z,16.73
2018-09-04T05:49:47.129Z,16.86
2018-09-04T05:50:47.078Z,16.86
2018-09-04T05:51:47.068Z,16.91
2018-09-04T05:52:47.056Z,16.92
2018-09-04T05:53:47.055Z,17.01
2018-09-04T05:54:47.074Z,17.16
2018-09-04T05:55:47.024Z,17.32
2018-09-04T05:56:47.013Z,17.59
2018-09-04T05:57:46.999Z,17.90
2018-09-04T05:58:46.995Z,18.31
2018-09-04T05:59:47.012Z,18.63
2018-09-04T06:00:46.967Z,19.20
2018-09-04T06:01:46.957Z,19.39
2018-09-04T06:02:46.953Z,19.70
2018-09-04T06:03:46.970Z,19.92
2018-09-04T06:04:46.925Z,20.18
2018-09-04T06:05:46.912Z,20.32
2018-09-04T06:06:46.918Z,20.37
2018-09-04T06:07:46.891Z,20.63
2018-09-04T06:08:46.923Z,20.82
2018-09-04T06:09:46.879Z,20.96
2018-09-04T06:10:46.866Z,21.10
2018-09-04T06:11:46.853Z,21.30
2018-09-04T06:12:46.840Z,21.30
2018-09-04T06:13:46.902Z,21.56
2018-09-04T06:14:46.822Z,21.48
2018-09-04T06:15:46.804Z,21.83
2018-09-04T06:16:46.797Z,22.06
2018-09-04T06:17:46.786Z,22.01
2018-09-04T06:18:46.802Z,22.18
2018-09-04T06:19:46.769Z,22.23
2018-09-04T06:20:46.750Z,22.31
2018-09-04T06:21:46.738Z,22.43
2018-09-04T06:22:46.728Z,22.53
2018-09-04T06:23:46.775Z,22.58
2018-09-04T06:24:46.706Z,22.68
2018-09-04T06:25:46.702Z,22.84
2018-09-04T06:26:46.689Z,22.83
2018-09-04T06:27:46.674Z,22.92
2018-09-04T06:28:46.700Z,23.10
2018-09-04T06:29:46.648Z,23.18
2018-09-04T06:30:46.636Z,23.18
2018-09-04T06:31:46.670Z,23.34
2018-09-04T06:32:46.611Z,23.45
2018-09-04T06:33:46.626Z,23.39
2018-09-04T06:34:46.585Z,23.44
2018-09-04T06:35:46.603Z,23.13
2018-09-04T06:36:46.669Z,22.86
2018-09-04T06:37:46.556Z,22.84
2018-09-04T06:38:46.547Z,22.70
2018-09-04T06:39:46.563Z,22.86
2018-09-04T06:40:46.520Z,23.18
2018-09-04T06:41:46.508Z,23.39
2018-09-04T06:42:46.516Z,23.54
2018-09-04T06:43:46.500Z,23.48
2018-09-04T06:44:46.514Z,23.69
2018-09-04T06:45:46.478Z,23.76
2018-09-04T06:46:46.466Z,23.88
2018-09-04T06:47:46.450Z,24.14
2018-09-04T06:48:46.454Z,24.18
2018-09-04T06:49:46.462Z,24.04
2018-09-04T06:50:46.421Z,24.11
2018-09-04T06:51:46.411Z,24.09
2018-09-04T06:52:46.395Z,24.16
2018-09-04T06:53:46.398Z,24.25
2018-09-04T06:54:46.484Z,24.28
2018-09-04T06:55:46.392Z,24.32
2018-09-04T06:56:46.345Z,24.47
2018-09-04T06:57:46.350Z,24.66
2018-09-04T06:58:46.324Z,24.62
2018-09-04T06:59:46.327Z,24.62
2018-09-04T07:00:46.332Z,24.59
2018-09-04T07:01:46.293Z,24.68
2018-09-04T07:02:46.288Z,24.47
2018-09-04T07:03:46.275Z,24.00
2018-09-04T07:04:46.261Z,23.52
2018-09-04T07:05:46.293Z,23.21
2018-09-04T07:06:46.234Z,22.86
2018-09-04T07:07:46.231Z,22.78
2018-09-04T07:08:46.222Z,22.59
2018-09-04T07:09:46.211Z,22.55
2018-09-04T07:10:46.228Z,22.49
2018-09-04T07:11:46.248Z,22.71
2018-09-04T07:12:46.177Z,22.77
2018-09-04T07:13:46.160Z,23.11
2018-09-04T07:14:46.146Z,23.13
2018-09-04T07:15:46.134Z,23.13
2018-09-04T07:16:46.146Z,23.17
2018-09-04T07:17:46.106Z,22.96
2018-09-04T07:18:46.106Z,23.23
2018-09-04T07:19:46.080Z,23.56
2018-09-04T07:20:46.078Z,23.48
2018-09-04T07:21:46.111Z,23.04
2018-09-04T07:22:46.062Z,22.77
2018-09-04T07:23:46.112Z,22.55
2018-09-04T07:24:46.027Z,22.36
2018-09-04T07:25:46.018Z,22.30
2018-09-04T07:26:46.042Z,22.23
2018-09-04T07:27:46.000Z,22.41
2018-09-04T07:28:45.978Z,22.36
2018-09-04T07:29:45.971Z,22.55
2018-09-04T07:30:45.965Z,22.46
2018-09-04T07:31:45.987Z,22.43
2018-09-04T07:32:45.942Z,22.43
2018-09-04T07:33:45.954Z,22.30
2018-09-04T07:34:45.914Z,22.19
2018-09-04T07:35:45.904Z,22.15
2018-09-04T07:36:45.896Z,22.10
2018-09-04T07:37:45.907Z,22.07
2018-09-04T07:38:45.873Z,22.22
2018-09-04T07:39:45.862Z,22.23
2018-09-04T07:40:45.844Z,21.97
2018-09-04T07:41:45.885Z,21.85
2018-09-04T07:42:45.849Z,21.96
2018-09-04T07:43:45.820Z,21.96
2018-09-04T07:44:45.806Z,21.94
2018-09-04T07:45:45.802Z,21.68
2018-09-04T07:46:45.794Z,21.84
2018-09-04T07:47:45.810Z,21.72
2018-09-04T07:48:45.773Z,21.85
2018-09-04T07:49:45.758Z,22.04
2018-09-04T07:50:45.752Z,22.06
2018-09-04T07:51:45.745Z,22.14
2018-09-04T07:52:45.766Z,22.16
2018-09-04T07:53:45.763Z,22.25
2018-09-04T07:54:45.700Z,22.33
2018-09-04T07:55:45.690Z,22.28
2018-09-04T07:56:45.681Z,22.30
2018-09-04T07:57:45.698Z,22.34
2018-09-04T07:58:45.664Z,22.47
2018-09-04T07:59:45.642Z,22.56
2018-09-04T08:00:45.669Z,22.51
2018-09-04T08:01:45.618Z,22.56
2018-09-04T08:02:45.646Z,22.55
2018-09-04T08:03:45.602Z,22.44
2018-09-04T08:04:45.592Z,22.21
2018-09-04T08:05:45.588Z,21.91
2018-09-04T08:06:45.571Z,21.84
2018-09-04T08:07:45.585Z,21.66
2018-09-04T08:08:45.552Z,21.69
2018-09-04T08:09:45.533Z,21.77
2018-09-04T08:10:45.531Z,21.77
2018-09-04T08:11:45.556Z,21.81
2018-09-04T08:12:45.498Z,21.77
2018-09-04T08:13:45.496Z,21.85
2018-09-04T08:14:45.481Z,21.81
2018-09-04T08:15:45.476Z,21.70
2018-09-04T08:16:45.481Z,21.74
2018-09-04T08:17:45.462Z,21.78
2018-09-04T08:18:45.458Z,21.84
2018-09-04T08:19:45.420Z,21.92
2018-09-04T08:20:45.467Z,21.96
2018-09-04T08:21:45.396Z,22.03
2018-09-04T08:22:45.388Z,22.08
2018-09-04T08:23:45.403Z,22.15
2018-09-04T08:24:45.369Z,22.16
2018-09-04T08:25:45.354Z,22.31
2018-09-04T08:26:45.342Z,22.71
2018-09-04T08:27:45.326Z,22.86
2018-09-04T08:28:45.345Z,23.18
2018-09-04T08:29:45.305Z,23.70
2018-09-04T08:30:45.296Z,24.07
2018-09-04T08:31:45.310Z,24.06
2018-09-04T08:32:45.312Z,23.86
2018-09-04T08:33:45.262Z,23.86
2018-09-04T08:34:45.262Z,23.74
2018-09-04T08:35:45.256Z,23.36
2018-09-04T08:36:45.276Z,23.28
2018-09-04T08:37:45.227Z,23.26
2018-09-04T08:38:45.212Z,23.47
2018-09-04T08:39:45.204Z,23.52
2018-09-04T08:40:45.192Z,23.42
2018-09-04T08:41:45.216Z,23.01
2018-09-04T08:42:45.180Z,22.68
2018-09-04T08:43:45.161Z,22.68
2018-09-04T08:44:45.146Z,22.67
2018-09-04T08:45:45.141Z,22.63
2018-09-04T08:46:45.178Z,22.62
2018-09-04T08:47:45.157Z,22.71
2018-09-04T08:48:45.111Z,22.71
2018-09-04T08:49:45.094Z,22.74
2018-09-04T08:50:45.232Z,22.84
2018-09-04T08:51:45.096Z,22.71
2018-09-04T08:52:45.072Z,22.51
2018-09-04T08:53:45.033Z,22.73
2018-09-04T08:54:45.028Z,22.58
2018-09-04T08:55:45.022Z,22.44
2018-09-04T08:56:45.000Z,22.41
2018-09-04T08:57:45.040Z,22.37
2018-09-04T08:58:45.121Z,22.33
2018-09-04T08:59:44.968Z,22.33
2018-09-04T09:00:44.970Z,22.15
2018-09-04T09:01:44.944Z,22.21
2018-09-04T09:02:44.984Z,22.19
2018-09-04T09:03:44.971Z,22.21
2018-09-04T09:04:44.912Z,22.23
2018-09-04T09:05:44.915Z,22.21
2018-09-04T09:06:44.898Z,22.30
2018-09-04T09:07:44.917Z,22.26
2018-09-04T09:08:44.871Z,22.56
2018-09-04T09:09:44.866Z,22.71
2018-09-04T09:10:44.845Z,22.68
2018-09-04T09:11:44.842Z,22.56
2018-09-04T09:12:44.872Z,23.70
2018-09-04T09:13:44.814Z,23.59
2018-09-04T09:14:44.807Z,25.01
2018-09-04T09:15:44.800Z,26.13
2018-09-04T09:16:44.952Z,26.31
2018-09-04T09:17:44.881Z,26.63
2018-09-04T09:18:44.756Z,27.29
2018-09-04T09:19:44.754Z,27.34
2018-09-04T09:20:44.734Z,26.53
2018-09-04T09:21:44.734Z,27.52
2018-09-04T09:22:44.778Z,27.94
2018-09-04T09:23:44.708Z,28.43
2018-09-04T09:24:44.733Z,27.28
2018-09-04T09:25:44.688Z,26.03
2018-09-04T09:26:44.682Z,26.67
2018-09-04T09:27:44.676Z,27.00
2018-09-04T09:28:44.688Z,28.00
2018-09-04T09:29:44.648Z,28.83
2018-09-04T09:30:44.637Z,29.53
2018-09-04T09:31:44.628Z,30.03
2018-09-04T09:32:44.616Z,30.63
2018-09-04T09:33:44.660Z,30.91
2018-09-04T09:34:44.590Z,31.17
2018-09-04T09:35:44.584Z,31.51
2018-09-04T09:36:44.685Z,31.98
2018-09-04T09:37:44.560Z,32.35
2018-09-04T09:38:44.593Z,32.45
2018-09-04T09:39:44.542Z,32.12
2018-09-04T09:40:44.527Z,31.81
2018-09-04T09:41:44.522Z,31.86
2018-09-04T09:42:44.513Z,30.06
2018-09-04T09:43:44.538Z,30.21
2018-09-04T09:44:44.489Z,30.78
2018-09-04T09:45:44.475Z,31.00
2018-09-04T09:46:44.469Z,31.59
2018-09-04T09:47:44.465Z,31.95
2018-09-04T09:48:44.476Z,32.26
2018-09-04T09:49:44.439Z,32.63
2018-09-04T09:50:44.499Z,32.39
2018-09-04T09:51:44.418Z,32.27
2018-09-04T09:52:44.477Z,32.72
2018-09-04T09:53:44.433Z,33.13
2018-09-04T09:54:44.372Z,33.75
2018-09-04T09:55:44.367Z,33.23
2018-09-04T09:56:44.415Z,31.11
2018-09-04T09:57:44.340Z,30.46
2018-09-04T09:58:44.366Z,31.25
2018-09-04T09:59:44.476Z,31.04
2018-09-04T10:00:44.338Z,29.49
2018-09-04T10:01:44.310Z,29.49
2018-09-04T10:02:44.289Z,30.02
2018-09-04T10:03:44.278Z,28.47
2018-09-04T10:04:44.273Z,28.37
2018-09-04T10:05:44.299Z,27.35
2018-09-04T10:06:44.252Z,26.73
2018-09-04T10:07:44.373Z,26.22
2018-09-04T10:08:44.227Z,25.85
2018-09-04T10:09:44.224Z,25.44
2018-09-04T10:10:44.280Z,25.01
2018-09-04T10:11:44.196Z,24.79
2018-09-04T10:12:44.182Z,25.33
2018-09-04T10:13:44.184Z,24.99
2018-09-04T10:14:44.160Z,26.55
2018-09-04T10:15:44.189Z,28.40
2018-09-04T10:16:44.146Z,29.57
2018-09-04T10:17:44.129Z,29.28
2018-09-04T10:18:44.132Z,28.68
2018-09-04T10:19:44.120Z,28.64
2018-09-04T10:20:44.140Z,27.66
2018-09-04T10:21:44.092Z,27.13
2018-09-04T10:22:44.083Z,28.57
2018-09-04T10:23:44.066Z,28.90
2018-09-04T10:24:44.057Z,27.57
2018-09-04T10:25:44.098Z,26.59
2018-09-04T10:26:44.042Z,26.03
2018-09-04T10:27:44.029Z,25.63
2018-09-04T10:28:44.024Z,25.30
2018-09-04T10:29:44.012Z,25.18
2018-09-04T10:30:44.028Z,25.80
2018-09-04T10:31:43.992Z,25.98
2018-09-04T10:32:44.009Z,25.89
2018-09-04T10:33:43.968Z,25.49
2018-09-04T10:34:43.957Z,25.11
2018-09-04T10:35:43.966Z,24.89
2018-09-04T10:36:43.964Z,24.65
2018-09-04T10:37:43.922Z,24.46
2018-09-04T10:38:43.916Z,24.28
2018-09-04T10:39:43.900Z,26.98
2018-09-04T10:40:43.897Z,27.85
2018-09-04T10:41:43.912Z,27.57
2018-09-04T10:42:43.908Z,28.41
2018-09-04T10:43:43.849Z,30.20
2018-09-04T10:44:43.839Z,28.93
2018-09-04T10:45:43.835Z,27.66
2018-09-04T10:46:43.817Z,26.86
2018-09-04T10:47:43.841Z,26.11
2018-09-04T10:48:43.801Z,26.55
2018-09-04T10:49:43.779Z,28.75
2018-09-04T10:50:43.807Z,29.73
2018-09-04T10:51:43.766Z,29.81
2018-09-04T10:52:43.753Z,30.21
2018-09-04T10:53:43.772Z,31.18
2018-09-04T10:54:43.729Z,29.98
2018-09-04T10:55:43.781Z,28.47
2018-09-04T10:56:43.706Z,26.96
2018-09-04T10:57:43.782Z,26.46
2018-09-04T10:58:43.720Z,28.10
2018-09-04T10:59:43.685Z,29.68
2018-09-04T11:00:43.688Z,30.88
2018-09-04T11:01:43.691Z,31.70
2018-09-04T11:02:43.661Z,32.12
2018-09-04T11:03:43.646Z,32.23
2018-09-04T11:04:43.636Z,32.20
2018-09-04T11:05:43.626Z,32.59
2018-09-04T11:06:43.642Z,32.83
2018-09-04T11:07:43.598Z,32.78
2018-09-04T11:08:43.596Z,32.88
2018-09-04T11:09:43.702Z,33.15
2018-09-04T11:10:43.570Z,30.76
2018-09-04T11:11:43.590Z,29.16
2018-09-04T11:12:43.554Z,29.02
2018-09-04T11:13:43.543Z,28.83
2018-09-04T11:14:43.528Z,30.56
2018-09-04T11:15:43.518Z,31.47
2018-09-04T11:16:43.546Z,30.06
2018-09-04T11:17:43.500Z,28.46
2018-09-04T11:18:43.490Z,27.22
2018-09-04T11:19:43.474Z,29.06
2018-09-04T11:20:43.468Z,30.44
2018-09-04T11:21:43.494Z,30.98
2018-09-04T11:22:43.452Z,30.95
2018-09-04T11:23:43.499Z,31.33
2018-09-04T11:24:43.422Z,32.16
2018-09-04T11:25:43.421Z,31.70
2018-09-04T11:26:43.436Z,29.57
2018-09-04T11:27:43.430Z,28.37
2018-09-04T11:28:43.382Z,27.40
2018-09-04T11:29:43.382Z,28.04
2018-09-04T11:30:43.424Z,28.38
2018-09-04T11:31:43.345Z,29.30
2018-09-04T11:32:43.390Z,30.43
2018-09-04T11:33:43.324Z,31.50
2018-09-04T11:34:43.319Z,29.64
2018-09-04T11:35:43.304Z,30.01
2018-09-04T11:36:43.288Z,30.98
2018-09-04T11:37:43.314Z,31.86
2018-09-04T11:38:43.288Z,32.29
2018-09-04T11:39:43.255Z,32.45
2018-09-04T11:40:43.316Z,32.30
2018-09-04T11:41:43.240Z,30.52
2018-09-04T11:42:43.234Z,28.87
2018-09-04T11:43:43.246Z,27.90
2018-09-04T11:44:43.204Z,27.91
2018-09-04T11:45:43.192Z,29.65
2018-09-04T11:46:43.244Z,30.88
2018-09-04T11:47:43.183Z,31.14
2018-09-04T11:48:43.202Z,29.68
2018-09-04T11:49:43.156Z,28.77
2018-09-04T11:50:43.144Z,29.28
2018-09-04T11:51:43.126Z,29.62
2018-09-04T11:52:43.147Z,30.73
2018-09-04T11:53:43.152Z,30.46
2018-09-04T11:54:43.103Z,29.03
2018-09-04T11:55:43.094Z,30.74
2018-09-04T11:56:43.078Z,31.89
2018-09-04T11:57:43.072Z,32.61
2018-09-04T11:58:43.082Z,32.61
2018-09-04T11:59:43.127Z,31.86
2018-09-04T12:00:43.036Z,29.62
2018-09-04T12:01:43.032Z,28.62
2018-09-04T12:02:43.029Z,30.49
2018-09-04T12:03:43.038Z,30.74
2018-09-04T12:04:43.006Z,31.41
2018-09-04T12:05:43.044Z,32.00
2018-09-04T12:06:43.083Z,32.60
2018-09-04T12:07:42.979Z,31.11
2018-09-04T12:08:42.990Z,30.24
2018-09-04T12:09:42.964Z,29.27
2018-09-04T12:10:42.966Z,28.45
2018-09-04T12:11:42.937Z,28.27
2018-09-04T12:12:43.060Z,29.42
2018-09-04T12:13:42.964Z,30.59
2018-09-04T12:14:42.905Z,31.66
2018-09-04T12:15:42.897Z,32.02
2018-09-04T12:16:42.905Z,31.07
2018-09-04T12:17:42.869Z,30.03
2018-09-04T12:18:42.908Z,29.65
2018-09-04T12:19:42.848Z,27.76
2018-09-04T12:20:42.840Z,27.57
2018-09-04T12:21:42.828Z,29.31
2018-09-04T12:22:42.817Z,28.45
2018-09-04T12:23:42.845Z,27.26
2018-09-04T12:24:42.801Z,26.53
2018-09-04T12:25:42.788Z,25.89
2018-09-04T12:26:42.784Z,25.89
2018-09-04T12:27:42.768Z,27.86
2018-09-04T12:28:42.776Z,26.71
2018-09-04T12:29:42.748Z,26.07
2018-09-04T12:30:42.727Z,25.49
2018-09-04T12:31:42.753Z,27.44
2018-09-04T12:32:42.714Z,29.00
2018-09-04T12:33:42.728Z,30.10
2018-09-04T12:34:42.680Z,31.10
2018-09-04T12:35:42.669Z,31.50
2018-09-04T12:36:42.692Z,32.05
2018-09-04T12:37:42.651Z,32.35
2018-09-04T12:38:42.671Z,30.74
2018-09-04T12:39:42.631Z,29.52
2018-09-04T12:40:42.616Z,29.28
2018-09-04T12:41:42.611Z,29.02
2018-09-04T12:42:42.594Z,28.43
2018-09-04T12:43:42.622Z,28.77
2018-09-04T12:44:42.588Z,29.80
2018-09-04T12:45:42.570Z,30.16
2018-09-04T12:46:42.569Z,30.73
2018-09-04T12:47:42.542Z,30.61
2018-09-04T12:48:42.716Z,31.45
2018-09-04T12:49:42.518Z,31.93
2018-09-04T12:50:42.516Z,32.19
2018-09-04T12:51:42.502Z,30.74
2018-09-04T12:52:42.490Z,29.28